• Join FlightAware (Why Join?)
  • Login
  • US Flag 
12:37AM EDT


 

Airport Tracker/Info


-or-


 

Live Flight TrackerFlight Track Log ✈ F-GSPR ✈ 24-Apr-2013 ✈ KATL - LFPG / CDG

Flight Track Log - Related Links

Times and Time Zones

All times are in EDT time to prevent confusion due to time zone crossing. See the F-GSPR flight status page for this flight to view local times or setup timezone preferences in your user account.

Time Position Orientation Groundspeed Altitude Reporting Facility
EDT Latitude Longitude Course Direction KTS MPH feet Rate Location/Type
08:57PM 34.6473 -82.5274 54° Northeast  Level FlightAware Approximate
08:58PM 34.7215 -82.4040 54° Northeast  Level FlightAware Approximate
08:59PM 34.7955 -82.2804 54° Northeast  Level FlightAware Approximate
09:00PM 34.8695 -82.1565 54° Northeast  Level FlightAware Approximate
09:01PM 34.9493 -82.0382 50° Northeast  Level FlightAware Approximate
09:02PM 35.0304 -81.9209 50° Northeast  Level FlightAware Approximate
09:02PM 33.6360 -84.4550 44° Northeast 168 193 2,200  Level FlightAware
09:03PM 35.1161 -81.8089 44° Northeast  Level FlightAware Approximate
09:03PM 33.6330 -84.4790 261° West 167 192 3,300  Level FlightAware
09:03PM 33.6230 -84.5010 241° Southwest 170 196 4,300 1,740 Climbing FlightAware
09:04PM 33.6100 -84.5320 243° Southwest 197 227 4,900 1,260 Climbing FlightAware
09:04PM 33.5970 -84.5640 244° Southwest 233 268 5,600 1,500 Climbing FlightAware
09:04PM 33.5930 -84.5700 231° Southwest 240 276 5,800 360 Climbing FlightAware
09:05PM 33.5810 -84.5960 241° Southwest 240 276 5,800 1,860 Level FlightAware
09:07PM 33.7423 -84.3878 47° Northeast  Level Estimated
09:07PM 33.4540 -84.5020 47° Northeast 339 390 10,400  Level FlightAware
09:07PM 33.4580 -84.4130 87° East 380 437 11,300 1,500 Climbing FlightAware
09:08PM 33.4720 -84.3140 80° East 405 466 12,600 1,980 Climbing FlightAware
09:09PM 33.5250 -84.2320 52° Northeast 413 475 14,300 2,280 Climbing FlightAware
09:09PM 33.5780 -84.1650 46° Northeast 425 489 15,900 2,160 Climbing FlightAware
09:10PM 33.6380 -84.0890 47° Northeast 431 496 17,400 1,920 Climbing FlightAware
09:11PM 33.6960 -84.0150 47° Northeast 449 517 18,700 1,860 Climbing FlightAware
09:12PM 33.7530 -83.9420 47° Northeast 453 521 19,900 1,860 Climbing FlightAware
09:12PM 33.8200 -83.8570 46° Northeast 465 535 21,400 1,740 Climbing FlightAware
09:13PM 33.8790 -83.7820 47° Northeast 472 543 22,400 1,200 Climbing FlightAware
09:14PM 33.9380 -83.7010 49° Northeast 491 565 23,000 420 Climbing FlightAware
09:14PM 34.0010 -83.6030 52° Northeast 485 558 23,000 240 Level FlightAware
09:15PM 34.0560 -83.5150 53° Northeast 488 562 23,400 960 Climbing FlightAware
09:16PM 34.1180 -83.4160 53° Northeast 506 582 24,400 1,380 Climbing FlightAware
09:16PM 34.1760 -83.3240 53° Northeast 514 592 25,400 1,440 Climbing FlightAware
09:17PM 34.2220 -83.2500 53° Northeast 513 590 26,200 1,500 Climbing FlightAware
09:17PM 34.2481 -83.2085 53° Northeast 521 600 26,600 1,500 Climbing FlightAware ADS-B
09:18PM 34.2933 -83.1360 53° Northeast 526 605 27,300 1,320 Climbing FlightAware ADS-B
09:18PM 34.3387 -83.0630 53° Northeast 531 611 28,000 1,320 Climbing FlightAware ADS-B
09:19PM 34.3837 -82.9904 53° Northeast 536 617 28,700 1,260 Climbing FlightAware ADS-B
09:19PM 34.4220 -82.9290 53° Northeast 537 618 29,300 1,260 Climbing FlightAware
09:19PM 34.4326 -82.9115 54° Northeast 539 620 29,400 1,380 Climbing FlightAware ADS-B
09:20PM 34.4930 -82.8141 53° Northeast 543 625 30,300 1,380 Climbing FlightAware ADS-B
09:21PM 34.5391 -82.7392 53° Northeast 541 623 31,100 1,560 Climbing FlightAware ADS-B
09:21PM 34.6066 -82.6293 53° Northeast 540 621 32,300 1,500 Climbing FlightAware ADS-B
09:22PM 34.6571 -82.5471 53° Northeast 538 619 33,100 1,260 Climbing FlightAware ADS-B
09:22PM 34.7042 -82.4702 53° Northeast 540 621 33,700 1,140 Climbing FlightAware ADS-B
09:23PM 34.7508 -82.3936 53° Northeast 541 623 34,300 1,200 Climbing FlightAware ADS-B
09:23PM 34.7955 -82.3203 53° Northeast 540 621 35,000 1,200 Climbing FlightAware ADS-B
09:24PM 34.8419 -82.2441 53° Northeast 539 620 35,600 1,020 Climbing FlightAware ADS-B
09:25PM 34.8948 -82.1569 53° Northeast 539 620 36,200 780 Climbing FlightAware ADS-B
09:25PM 34.9425 -82.0780 54° Northeast 544 626 36,500 540 Climbing FlightAware ADS-B
09:26PM 34.9879 -82.0028 54° Northeast 549 632 36,800 480 Climbing FlightAware ADS-B
09:26PM 35.0315 -81.9359 51° Northeast 550 633 37,000 180 Climbing FlightAware ADS-B
09:27PM 35.0877 -81.8642 46° Northeast 547 629 37,000  Level FlightAware ADS-B
09:27PM 35.1434 -81.7984 44° Northeast 543 625 37,000  Level FlightAware ADS-B
09:28PM 35.1994 -81.7332 44° Northeast 540 621 37,000  Level FlightAware ADS-B
09:28PM 35.2565 -81.6667 44° Northeast 537 618 37,000  Level FlightAware ADS-B
09:29PM 35.3112 -81.6026 44° Northeast 534 615 37,000  Level FlightAware ADS-B
09:29PM 35.3653 -81.5391 44° Northeast 534 615 37,000  Level FlightAware ADS-B
09:30PM 35.4191 -81.4760 44° Northeast 534 615 37,000  Level FlightAware ADS-B
09:30PM 35.4777 -81.4067 44° Northeast 535 616 37,000  Level FlightAware ADS-B
09:31PM 35.5320 -81.3426 44° Northeast 535 616 37,000  Level FlightAware ADS-B
09:31PM 35.5917 -81.2718 44° Northeast 535 616 37,000  Level FlightAware ADS-B
09:32PM 35.6479 -81.2052 44° Northeast 535 616 37,000  Level FlightAware ADS-B
09:32PM 35.7062 -81.1357 44° Northeast 536 617 37,000  Level FlightAware ADS-B
09:33PM 35.8070 -81.0155 44° Northeast 536 617 37,000  Level FlightAware ADS-B
09:34PM 35.8735 -80.9359 44° Northeast 536 617 37,000  Level FlightAware ADS-B
09:34PM 35.9014 -80.9008 44° Northeast 536 617 37,000  Level Atlanta Center
09:35PM 36.0064 -80.7736 44° Northeast 536 617 37,000  Level Atlanta Center
09:36PM 36.1156 -80.6433 44° Northeast 536 617 37,000  Level Atlanta Center
09:39PM 36.3600 -80.3456 44° Northeast 520 598 37,000  Level Washington Center
09:40PM 36.4739 -80.2053 45° Northeast 534 615 37,000  Level Washington Center
09:41PM 36.5811 -80.0744 44° Northeast 534 615 37,000  Level Washington Center
09:42PM 36.6861 -79.9433 45° Northeast 526 605 37,000  Level Washington Center
09:43PM 36.7908 -79.8169 44° Northeast 521 600 37,000  Level Washington Center
09:44PM 36.8869 -79.6975 45° Northeast 516 594 37,000  Level Washington Center
09:49PM 37.4770 -78.9220 45° Northeast 537 618 37,000  Level FlightAware
09:50PM 37.5290 -78.8490 48° Northeast 537 618 37,000  Level FlightAware
09:51PM 37.6220 -78.7150 49° Northeast 538 619 37,000  Level FlightAware
09:51PM 37.6890 -78.6200 48° Northeast 538 619 37,000  Level FlightAware
09:52PM 37.7420 -78.5450 48° Northeast 539 620 37,000  Level FlightAware
09:53PM 37.8480 -78.3930 49° Northeast 540 621 37,000  Level FlightAware
09:54PM 37.9470 -78.2490 49° Northeast 540 621 37,000  Level FlightAware
09:55PM 38.0070 -78.1580 50° Northeast 541 623 37,000  Level FlightAware
09:55PM 38.0701 -78.0408 56° Northeast 544 626 37,000  Level FlightAware ADS-B
09:56PM 38.1178 -77.9455 58° Northeast 545 627 37,000  Level FlightAware ADS-B
09:57PM 38.1909 -77.7982 58° Northeast 548 631 37,000  Level FlightAware ADS-B
09:57PM 38.2365 -77.7064 58° Northeast 548 631 37,000  Level FlightAware ADS-B
09:58PM 38.2778 -77.6227 58° Northeast 549 632 37,000  Level FlightAware ADS-B
09:58PM 38.3198 -77.5375 58° Northeast 549 632 37,000  Level FlightAware ADS-B
09:59PM 38.3610 -77.4537 58° Northeast 550 633 37,000  Level FlightAware ADS-B
09:59PM 38.4035 -77.3673 58° Northeast 551 634 37,000  Level FlightAware ADS-B
10:00PM 38.4448 -77.2828 58° Northeast 551 634 37,000  Level FlightAware ADS-B
10:01PM 38.4877 -77.1951 58° Northeast 553 636 37,000  Level FlightAware ADS-B
10:01PM 38.5283 -77.1118 58° Northeast 553 636 37,000  Level FlightAware ADS-B
10:02PM 38.5713 -77.0234 58° Northeast 554 638 37,000  Level FlightAware ADS-B
10:02PM 38.6163 -76.9303 58° Northeast 552 635 37,000  Level FlightAware ADS-B
10:03PM 38.6570 -76.8461 58° Northeast 551 634 37,000  Level FlightAware ADS-B
10:03PM 38.6972 -76.7628 58° Northeast 551 634 37,000  Level FlightAware ADS-B
10:04PM 38.7409 -76.6679 59° Northeast 552 635 37,000  Level FlightAware ADS-B
10:04PM 38.7781 -76.5809 61° Northeast 552 635 37,000  Level FlightAware ADS-B
10:05PM 38.8184 -76.4859 61° Northeast 553 636 37,000  Level FlightAware ADS-B
10:05PM 38.8552 -76.3995 61° Northeast 553 636 37,000  Level FlightAware ADS-B
10:06PM 38.8925 -76.3126 61° Northeast 551 634 37,000  Level FlightAware ADS-B
10:06PM 38.9218 -76.2471 60° Northeast 551 634 37,000  Level FlightAware ADS-B
10:07PM 38.9568 -76.1854 54° Northeast 549 632 37,000  Level FlightAware ADS-B
10:07PM 38.9961 -76.1299 48° Northeast 547 629 37,000  Level FlightAware ADS-B
10:07PM 39.0519 -76.0575 45° Northeast 547 629 37,000  Level FlightAware ADS-B
10:08PM 39.1135 -75.9789 45° Northeast 546 628 37,000  Level FlightAware ADS-B
10:09PM 39.1737 -75.9022 45° Northeast 545 627 37,000  Level FlightAware ADS-B
10:09PM 39.2289 -75.8316 45° Northeast 546 628 37,000  Level FlightAware ADS-B
10:10PM 39.2833 -75.7618 45° Northeast 546 628 37,000  Level FlightAware ADS-B
10:10PM 39.3372 -75.6924 45° Northeast 547 629 37,000  Level FlightAware ADS-B
10:11PM 39.3997 -75.6115 45° Northeast 545 627 37,000  Level FlightAware ADS-B
10:11PM 39.4565 -75.5377 45° Northeast 544 626 37,000  Level FlightAware ADS-B
10:12PM 39.5111 -75.4662 45° Northeast 544 626 37,000  Level FlightAware ADS-B
10:12PM 39.5679 -75.3923 45° Northeast 539 620 37,000  Level FlightAware ADS-B
10:13PM 39.6211 -75.3225 45° Northeast 537 618 37,000  Level FlightAware ADS-B
10:13PM 39.6574 -75.2745 46° Northeast 538 619 37,000  Level FlightAware ADS-B
10:14PM 39.7084 -75.2025 47° Northeast 539 620 37,000  Level FlightAware ADS-B
10:14PM 39.7613 -75.1266 48° Northeast 539 620 37,000  Level FlightAware ADS-B
10:15PM 39.8173 -75.0464 48° Northeast 538 619 37,000  Level FlightAware ADS-B
10:15PM 39.8745 -74.9646 48° Northeast 538 619 37,000  Level FlightAware ADS-B
10:16PM 39.9140 -74.9080 48° Northeast 533 613 37,000  Level FlightAware
10:16PM 39.9346 -74.8789 47° Northeast 539 620 37,000  Level FlightAware ADS-B
10:16PM 39.9853 -74.8065 48° Northeast 540 621 37,000  Level FlightAware ADS-B
10:17PM 40.0363 -74.7338 47° Northeast 539 620 37,000  Level FlightAware ADS-B
10:17PM 40.0746 -74.6784 48° Northeast 539 620 37,000  Level FlightAware ADS-B
10:17PM 40.0852 -74.6599 53° Northeast 540 621 37,000  Level FlightAware ADS-B
10:18PM 40.1211 -74.5724 62° Northeast 542 624 37,000  Level FlightAware ADS-B
10:18PM 40.1527 -74.4836 65° Northeast 542 624 37,000  Level FlightAware ADS-B
10:19PM 40.1821 -74.3824 69° East 540 621 37,000  Level FlightAware ADS-B
10:19PM 40.2085 -74.2842 71° East 540 621 37,000  Level FlightAware ADS-B
10:20PM 40.2424 -74.1582 71° East 540 621 37,000  Level FlightAware ADS-B
10:21PM 40.2693 -74.0594 70° East 543 625 37,000  Level FlightAware ADS-B
10:21PM 40.2980 -73.9548 70° East 545 627 37,000  Level FlightAware ADS-B
10:22PM 40.3255 -73.8541 70° East 546 628 37,000  Level FlightAware ADS-B
10:22PM 40.3539 -73.7497 70° East 547 629 37,000  Level FlightAware ADS-B
10:23PM 40.3810 -73.6497 70° East 547 629 37,000  Level FlightAware ADS-B
10:24PM 40.4119 -73.5344 71° East 548 631 37,000  Level FlightAware ADS-B
10:24PM 40.4409 -73.4261 71° East 549 632 37,000  Level FlightAware ADS-B
10:25PM 40.4673 -73.3264 71° East 549 632 37,000  Level FlightAware ADS-B
10:25PM 40.4925 -73.2307 71° East 549 632 37,000  Level FlightAware ADS-B
10:26PM 40.5218 -73.1203 71° East 549 632 37,000  Level FlightAware ADS-B
10:26PM 40.5490 -73.0160 71° East 548 631 37,000  Level FlightAware
10:26PM 40.5560 -72.9884 72° East 548 631 37,000  Level FlightAware ADS-B
10:27PM 40.5790 -72.8990 71° East 548 631 37,000  Level FlightAware
10:28PM 40.6120 -72.7730 71° East 548 631 37,000  Level FlightAware
10:28PM 40.6235 -72.7283 71° East 549 632 37,000  Level FlightAware ADS-B
10:28PM 40.6490 -72.6280 71° East 547 629 37,000  Level FlightAware
10:29PM 40.6810 -72.5020 71° East 545 627 37,000  Level FlightAware
10:30PM 40.7170 -72.3630 71° East 545 627 37,000  Level FlightAware
10:30PM 40.7500 -72.2320 72° East 544 626 37,000  Level FlightAware
10:31PM 40.7800 -72.1140 71° East 544 626 37,000  Level FlightAware
10:31PM 40.7934 -72.0600 72° East 545 627 37,000  Level FlightAware ADS-B
10:32PM 40.8180 -71.9600 72° East 544 626 37,000  Level FlightAware
10:32PM 40.8214 -71.9484 69° East 545 627 37,000  Level FlightAware ADS-B
10:33PM 40.8490 -71.8390 72° East 541 623 37,000  Level FlightAware
10:33PM 40.8840 -71.6950 72° East 539 620 37,000  Level FlightAware
10:34PM 40.9130 -71.5770 72° East 538 619 37,000  Level FlightAware
10:35PM 40.9450 -71.4480 72° East 535 616 37,000  Level FlightAware
10:35PM 40.9740 -71.3290 72° East 533 613 37,000  Level FlightAware
10:36PM 41.0130 -71.2000 68° East 523 602 37,000  Level FlightAware
10:37PM 41.0642 -71.0883 59° Northeast 517 595 37,000  Level FlightAware ADS-B
10:37PM 41.1090 -71.0073 54° Northeast 515 593 37,000  Level FlightAware ADS-B
10:38PM 41.1523 -70.9284 54° Northeast 514 592 37,000  Level FlightAware ADS-B
10:38PM 41.2047 -70.8328 54° Northeast 517 595 37,000  Level FlightAware ADS-B
10:39PM 41.2660 -70.7210 54° Northeast 521 600 37,000  Level FlightAware
10:40PM 41.3260 -70.6130 53° Northeast 519 597 37,000  Level FlightAware
10:40PM 41.3740 -70.5250 54° Northeast 518 596 37,000  Level FlightAware
10:41PM 41.4190 -70.4410 54° Northeast 518 596 37,000  Level FlightAware
10:42PM 41.4870 -70.3170 54° Northeast 518 596 37,000  Level FlightAware
10:42PM 41.5430 -70.2130 54° Northeast 519 597 37,000  Level FlightAware
10:43PM 41.5910 -70.1220 55° Northeast 512 589 37,000  Level FlightAware
10:44PM 41.6590 -69.9920 55° Northeast 501 577 37,000  Level FlightAware
10:44PM 41.7130 -69.8880 55° Northeast 504 580 37,000  Level FlightAware
10:45PM 41.7700 -69.7800 55° Northeast 494 568 37,000  Level FlightAware
10:46PM 41.8260 -69.6710 55° Northeast 497 572 37,000  Level FlightAware
10:47PM 41.8790 -69.5680 55° Northeast 505 581 37,000  Level FlightAware
10:47PM 41.9300 -69.4690 55° Northeast 497 572 37,000  Level FlightAware
10:48PM 41.9910 -69.3500 55° Northeast 494 568 37,000  Level FlightAware
10:49PM 42.0500 -69.2370 55° Northeast 491 565 37,000  Level FlightAware
10:49PM 42.1020 -69.1350 55° Northeast 493 567 37,000  Level FlightAware
10:50PM 42.1480 -69.0430 56° Northeast 493 567 37,000  Level FlightAware
10:51PM 42.2120 -68.9170 56° Northeast 492 566 37,000  Level FlightAware
10:51PM 42.2490 -68.8430 56° Northeast 493 567 37,000  Level FlightAware
10:52PM 42.3170 -68.7090 56° Northeast 494 568 37,000  Level FlightAware
10:53PM 42.3900 -68.5630 56° Northeast 494 568 37,000  Level FlightAware
10:54PM 42.4570 -68.4290 56° Northeast 495 570 37,000  Level FlightAware
10:55PM 42.5080 -68.3250 56° Northeast 499 574 37,000  Level FlightAware
10:55PM 42.5590 -68.2210 56° Northeast 501 577 37,000  Level FlightAware
10:56PM 42.6290 -68.0780 56° Northeast 501 577 37,000  Level FlightAware
10:57PM 42.6720 -67.9890 57° Northeast 501 577 37,000  Level FlightAware
10:58PM 42.7250 -67.8760 57° Northeast 501 577 37,000  Level FlightAware
10:58PM 42.7680 -67.7860 57° Northeast 501 577 37,000  Level FlightAware
10:59PM 42.8570 -67.6120 55° Northeast 504 580 37,000  Level FlightAware
11:00PM 42.9080 -67.5080 56° Northeast 505 581 37,000  Level FlightAware
11:01PM 42.9630 -67.3910 57° Northeast 507 583 37,000  Level FlightAware
11:01PM 43.0230 -67.2670 56° Northeast 502 578 37,000  Level FlightAware
11:02PM 43.0730 -67.1620 57° Northeast 502 578 37,000  Level FlightAware
11:03PM 43.1300 -67.0420 57° Northeast 501 577 37,000  Level FlightAware
11:03PM 43.1760 -66.9440 57° Northeast 496 571 37,000  Level FlightAware
11:04PM 43.2240 -66.8430 57° Northeast 494 568 37,000  Level FlightAware
11:05PM 43.2830 -66.7140 58° Northeast 490 564 37,000  Level FlightAware
11:05PM 43.3340 -66.6060 57° Northeast 489 563 37,000  Level FlightAware
11:06PM 43.3890 -66.4860 58° Northeast 487 560 37,000  Level FlightAware
11:07PM 43.4370 -66.3810 58° Northeast 488 562 37,000  Level FlightAware
11:08PM 43.4860 -66.2760 57° Northeast 491 565 37,000  Level FlightAware
11:08PM 43.5400 -66.1560 58° Northeast 491 565 37,000  Level FlightAware
11:09PM 43.5890 -66.0490 58° Northeast 494 568 37,000  Level FlightAware
11:10PM 43.6380 -65.9430 57° Northeast 492 566 37,000  Level FlightAware
11:10PM 43.6930 -65.8200 58° Northeast 496 571 37,000  Level FlightAware
11:11PM 43.7410 -65.7130 58° Northeast 497 572 37,000  Level FlightAware
11:12PM 43.7960 -65.5910 58° Northeast 503 579 37,000  Level FlightAware
11:12PM 43.8450 -65.4800 59° Northeast 503 579 37,000  Level FlightAware
11:13PM 43.8950 -65.3680 58° Northeast 502 578 37,000  Level FlightAware
11:14PM 43.9510 -65.2420 58° Northeast 499 574 37,000  Level FlightAware
11:15PM 43.9990 -65.1330 58° Northeast 500 575 37,000  Level FlightAware
11:15PM 44.0530 -65.0090 59° Northeast 506 582 37,000  Level FlightAware
11:16PM 44.1030 -64.8960 58° Northeast 505 581 37,000  Level FlightAware
11:17PM 44.1510 -64.7850 59° Northeast 512 589 37,000  Level FlightAware
11:17PM 44.2060 -64.6590 59° Northeast 509 586 37,000  Level FlightAware
11:18PM 44.2560 -64.5440 59° Northeast 508 585 37,000  Level FlightAware
11:19PM 44.3050 -64.4290 59° Northeast 512 589 37,000  Level FlightAware
11:19PM 44.3570 -64.3070 59° Northeast 509 586 37,000  Level FlightAware
11:20PM 44.4070 -64.1910 59° Northeast 515 593 37,000  Level FlightAware
11:21PM 44.4560 -64.0760 59° Northeast 515 593 37,000  Level FlightAware
11:22PM 44.5130 -63.9400 60° Northeast 516 594 37,000  Level FlightAware
11:22PM 44.5610 -63.8270 59° Northeast 516 594 37,000  Level FlightAware
11:23PM 44.6130 -63.7020 60° Northeast 510 587 37,000  Level FlightAware
11:24PM 44.6620 -63.5870 59° Northeast 511 588 37,000  Level FlightAware
11:24PM 44.7180 -63.4530 60° Northeast 512 589 37,000  Level FlightAware
11:25PM 44.7700 -63.3310 59° Northeast 512 589 37,000  Level FlightAware
11:26PM 44.8120 -63.2340 59° Northeast 512 589 37,000  Level FlightAware
11:27PM 44.8530 -63.1360 59° Northeast 512 589 37,000  Level FlightAware
11:27PM 44.8940 -63.0390 59° Northeast 512 589 37,000  Level FlightAware
11:28PM 44.9360 -62.9420 59° Northeast 512 589 37,000  Level FlightAware
11:29PM 44.9880 -62.8200 59° Northeast 512 589 37,000  Level FlightAware
11:29PM 45.0290 -62.7220 59° Northeast 512 589 37,000  Level FlightAware
11:30PM 45.0710 -62.6240 59° Northeast 512 589 37,000  Level FlightAware
11:31PM 45.1120 -62.5260 59° Northeast 512 589 37,000  Level FlightAware
11:31PM 45.1540 -62.4290 58° Northeast 512 589 37,000  Level FlightAware
11:32PM 45.1950 -62.3310 59° Northeast 512 589 37,000  Level FlightAware
11:33PM 45.2470 -62.2080 59° Northeast 512 589 37,000  Level FlightAware
11:34PM 45.2880 -62.1100 59° Northeast 512 589 37,000  Level FlightAware
11:38PM 45.6470 -61.1180 62° Northeast 511 588 37,000  Level FlightAware
11:38PM 45.6920 -61.0010 61° Northeast 509 586 37,000  Level FlightAware
11:39PM 45.7410 -60.8690 62° Northeast 507 583 37,000  Level FlightAware
11:40PM 45.7860 -60.7500 61° Northeast 507 583 37,000  Level FlightAware
11:40PM 45.8370 -60.6150 61° Northeast 506 582 37,000  Level FlightAware
11:41PM 45.8820 -60.4960 61° Northeast 505 581 37,000  Level FlightAware
11:42PM 45.9230 -60.3850 62° Northeast 504 580 37,000  Level FlightAware
11:43PM 45.9740 -60.2470 62° Northeast 504 580 37,000  Level FlightAware
11:43PM 46.0180 -60.1290 62° Northeast 506 582 37,000  Level FlightAware
11:44PM 46.0660 -59.9960 62° Northeast 508 585 37,000  Level FlightAware
11:45PM 46.1090 -59.8780 62° Northeast 509 586 37,000  Level FlightAware
11:45PM 46.1590 -59.7400 62° Northeast 504 580 37,000  Level FlightAware
11:46PM 46.2020 -59.6230 62° Northeast 492 566 37,000  Level FlightAware
11:47PM 46.2440 -59.5050 63° Northeast 494 568 37,000  Level FlightAware
11:47PM 46.2900 -59.3770 62° Northeast 495 570 37,000  Level FlightAware
11:48PM 46.3320 -59.2590 63° Northeast 500 575 37,000  Level FlightAware
11:49PM 46.3750 -59.1390 63° Northeast 504 580 37,000 300 Level FlightAware
11:50PM 46.4240 -59.0000 63° Northeast 504 580 37,500 660 Climbing FlightAware
11:50PM 46.4650 -58.8840 63° Northeast 497 572 38,000 300 Climbing FlightAware
11:51PM 46.5110 -58.7520 63° Northeast 496 571 38,000  Level FlightAware
11:52PM 46.5530 -58.6320 63° Northeast 498 573 38,000  Level FlightAware
11:52PM 46.5990 -58.4990 63° Northeast 503 579 38,000  Level FlightAware
11:53PM 46.6400 -58.3800 63° Northeast 503 579 38,000  Level FlightAware
11:54PM 46.6830 -58.2550 63° Northeast 512 589 38,000  Level FlightAware
11:54PM 46.7310 -58.1150 63° Northeast 514 592 38,000  Level FlightAware
11:55PM 46.7660 -58.0130 63° Northeast 515 593 38,000  Level FlightAware
11:56PM 46.8090 -57.8890 63° Northeast 515 593 38,000  Level FlightAware
11:56PM 46.8460 -57.7830 63° Northeast 515 593 38,000  Level FlightAware
11:57PM 46.8830 -57.6780 63° Northeast 515 593 38,000  Level FlightAware
11:58PM 46.9290 -57.5460 63° Northeast 515 593 38,000  Level FlightAware
11:59PM 46.9660 -57.4400 63° Northeast 515 593 38,000  Level FlightAware
11:59PM 47.0290 -57.2200 67° East 504 580 38,000  Level FlightAware
12:00AM 47.0750 -57.0720 65° Northeast 499 574 38,000  Level FlightAware
12:01AM 47.1130 -56.9510 65° Northeast 500 575 38,000  Level FlightAware
12:01AM 47.1550 -56.8160 65° Northeast 502 578 38,000  Level FlightAware
12:02AM 47.1950 -56.6880 65° Northeast 515 593 38,000  Level FlightAware
12:03AM 47.2400 -56.5410 66° East 520 598 38,000  Level FlightAware
12:04AM 47.2790 -56.4140 66° East 516 594 38,000  Level FlightAware
12:04AM 47.3180 -56.2870 66° East 512 589 38,000  Level FlightAware
12:05AM 47.3540 -56.1720 65° Northeast 512 589 38,000  Level FlightAware
12:06AM 47.3880 -56.0640 65° Northeast 512 589 38,000  Level FlightAware
12:06AM 47.4420 -55.8750 67° East 508 585 38,000  Level FlightAware
12:07AM 47.4800 -55.7490 66° East 506 582 38,000  Level FlightAware
12:08AM 47.5170 -55.6240 66° East 507 583 38,000  Level FlightAware
12:08AM 47.5590 -55.4800 67° East 508 585 38,000  Level FlightAware
12:09AM 47.5960 -55.3550 66° East 508 585 38,000  Level FlightAware
12:10AM 47.6390 -55.2080 66° East 508 585 38,000  Level FlightAware
12:11AM 47.6770 -55.0790 66° East 506 582 38,000  Level FlightAware
12:11AM 47.7130 -54.9530 67° East 505 581 38,000  Level FlightAware
12:12AM 47.7540 -54.8130 66° East 503 579 38,000  Level FlightAware
12:13AM 47.7900 -54.6860 67° East 502 578 38,000  Level FlightAware
12:13AM 47.8260 -54.5570 67° East 501 577 38,000  Level FlightAware
12:14AM 47.8660 -54.4180 67° East 502 578 38,000  Level FlightAware
12:15AM 47.9030 -54.2850 67° East 505 581 38,000  Level FlightAware
12:15AM 47.9430 -54.1440 67° East 508 585 38,000  Level FlightAware
12:16AM 47.9840 -53.9960 67° East 510 587 38,000  Level FlightAware
12:17AM 48.0200 -53.8650 68° East 510 587 38,000  Level FlightAware
12:18AM 48.0590 -53.7210 68° East 514 592 38,000  Level FlightAware
12:18AM 48.0950 -53.5910 67° East 512 589 38,000  Level FlightAware
12:19AM 48.1310 -53.4580 68° East 511 588 38,000  Level FlightAware
12:20AM 48.1710 -53.3110 68° East 509 586 38,000  Level FlightAware
12:20AM 48.2060 -53.1780 68° East 507 583 38,000  Level FlightAware
12:21AM 48.2440 -53.0360 68° East 507 583 38,000  Level FlightAware
12:22AM 48.2790 -52.9050 68° East 506 582 38,000  Level FlightAware
12:22AM 48.3130 -52.7750 68° East 508 585 38,000  Level FlightAware
12:23AM 48.3530 -52.6250 68° East 509 586 38,000  Level FlightAware
12:24AM 48.3870 -52.4930 69° East 508 585 38,000  Level FlightAware
12:25AM 48.4240 -52.3510 69° East 505 581 38,000  Level FlightAware
12:25AM 48.4500 -52.2500 69° East 506 582 38,000  Level FlightAware
12:26AM 48.4930 -52.0830 69° East 508 585 38,000  Level FlightAware
12:27AM 48.5300 -51.9370 69° East 504 580 38,000  Level FlightAware
12:27AM 48.5630 -51.8060 69° East 502 578 38,000  Level FlightAware
12:29AM 48.6300 -51.5370 69° East 506 582 38,000  Level FlightAware
12:30AM 48.6930 -51.2840 69° East 506 582 38,000  Level FlightAware
12:31AM 48.7440 -51.0760 70° East 499 574 38,000  Level FlightAware
12:32AM 48.8010 -50.8430 70° East 496 571 38,000  Level FlightAware
12:33AM 48.8370 -50.6830 71° East 503 579 38,000  Level FlightAware
12:34AM 48.8600 -50.5440 76° East 500 575 38,000  Level FlightAware
12:35AM 48.9070 -50.3260 72° East 498 573 38,000  Level FlightAware
12:35AM 48.9320 -50.2160 71° East 498 573 38,000  Level FlightAware
12:36AM 48.9590 -50.1040 70° East 498 573 38,000  Level FlightAware
12:37AM 48.9930 -49.9640 70° East 498 573 38,000  Level FlightAware
12:38AM 49.0190 -49.8520 70° East 498 573 38,000  Level FlightAware
12:38AM 49.0460 -49.7390 70° East 498 573 38,000  Level FlightAware
12:39AM 49.0730 -49.6270 70° East 498 573 38,000  Level FlightAware
12:40AM 49.1060 -49.4870 70° East 498 573 38,000  Level FlightAware
12:40AM 49.1330 -49.3740 70° East 498 573 38,000  Level FlightAware
12:41AM 49.1600 -49.2620 70° East 498 573 38,000  Level FlightAware
12:42AM 49.1870 -49.1490 70° East 498 573 38,000  Level FlightAware
12:42AM 49.2140 -49.0360 70° East 498 573 38,000  Level FlightAware
12:43AM 49.2470 -48.8950 70° East 498 573 38,000  Level FlightAware
12:44AM 49.2740 -48.7830 70° East 498 573 38,000  Level FlightAware
12:45AM 49.3010 -48.6700 70° East 498 573 38,000  Level FlightAware
12:45AM 49.2167 -48.1667 70° East 480 552 38,000  Level Gander Center
12:46AM 49.2333 -47.9667 83° East 480 552 38,000  Level Gander Center
12:47AM 49.2667 -47.7667 76° East 480 552 38,000  Level Gander Center
12:48AM 49.2833 -47.5667 83° East 480 552 38,000  Level Gander Center
12:50AM 49.3158 -47.3127 79° East  Level FlightAware Approximate
12:51AM 49.3500 -46.9500 79° East 480 552 38,000  Level Gander Center
12:53AM 49.4111 -46.6706 71° East  Level Estimated
12:57AM 49.4918 -45.8453 79° East  Level FlightAware Approximate
01:00AM 49.7099 -45.2463 72° East  Level Estimated
01:01AM 49.7511 -45.0415 73° East  Level Estimated
01:02AM 49.7920 -44.8362 73° East  Level Estimated
01:03AM 49.8325 -44.6306 73° East  Level Estimated
01:04AM 49.8727 -44.4247 73° East  Level Estimated
01:05AM 49.9125 -44.2185 73° East  Level Estimated
01:06AM 49.9519 -44.0119 73° East  Level Estimated
01:07AM 49.9910 -43.8049 74° East  Level Estimated
01:08AM 50.0296 -43.5977 74° East  Level Estimated
01:09AM 50.0680 -43.3901 74° East  Level Estimated
01:10AM 50.1059 -43.1821 74° East  Level Estimated
01:11AM 50.1435 -42.9739 74° East  Level Estimated
01:12AM 50.1807 -42.7653 74° East  Level Estimated
01:13AM 50.2175 -42.5564 75° East  Level Estimated
01:14AM 50.2540 -42.3471 75° East  Level Estimated
01:15AM 50.2901 -42.1376 75° East  Level Estimated
01:16AM 50.3257 -41.9277 75° East  Level Estimated
01:17AM 50.3611 -41.7176 75° East  Level Estimated
01:18AM 50.3960 -41.5071 75° East  Level Estimated
01:19AM 50.4306 -41.2963 75° East  Level Estimated
01:20AM 50.4647 -41.0852 76° East  Level Estimated
01:21AM 50.4986 -40.8737 76° East  Level Estimated
01:22AM 50.5320 -40.6620 76° East  Level Estimated
01:23AM 50.5650 -40.4500 76° East  Level Estimated
01:24AM 50.5976 -40.2377 76° East  Level Estimated
01:25AM 50.6299 -40.0251 76° East  Level Estimated
01:26AM 50.6618 -39.8122 77° East  Level Estimated
01:27AM 50.6933 -39.5991 77° East  Level Estimated
01:28AM 50.7243 -39.3856 77° East  Level Estimated
01:29AM 50.7551 -39.1719 77° East  Level Estimated
01:30AM 50.7854 -38.9579 77° East  Level Estimated
01:31AM 50.8153 -38.7435 77° East  Level Estimated
01:32AM 50.8448 -38.5290 78° East  Level Estimated
01:33AM 50.8739 -38.3141 78° East  Level Estimated
01:34AM 50.9027 -38.0990 78° East  Level Estimated
01:35AM 50.9310 -37.8837 78° East  Level Estimated
01:36AM 50.9590 -37.6680 78° East  Level Estimated
01:37AM 50.9865 -37.4521 78° East  Level Estimated
01:38AM 51.0137 -37.2360 79° East  Level Estimated
01:39AM 51.0404 -37.0196 79° East  Level Estimated
01:40AM 51.0668 -36.8030 79° East  Level Estimated
01:41AM 51.0927 -36.5861 79° East  Level Estimated
01:42AM 51.1183 -36.3689 79° East  Level Estimated
01:43AM 51.1434 -36.1516 79° East  Level Estimated
01:44AM 51.1682 -35.9340 80° East  Level Estimated
01:45AM 51.1925 -35.7161 80° East  Level Estimated
01:46AM 51.2164 -35.4981 80° East  Level Estimated
01:47AM 51.2400 -35.2798 80° East  Level Estimated
01:48AM 51.2631 -35.0613 80° East  Level Estimated
01:49AM 51.2858 -34.8426 80° East  Level Estimated
01:50AM 51.3081 -34.6236 81° East  Level Estimated
01:51AM 51.3300 -34.4045 81° East  Level Estimated
01:52AM 51.3515 -34.1851 81° East  Level Estimated
01:53AM 51.3726 -33.9655 81° East  Level Estimated
01:54AM 51.3932 -33.7458 81° East  Level Estimated
01:55AM 51.4135 -33.5258 82° East  Level Estimated
01:56AM 51.4334 -33.3057 82° East  Level Estimated
01:57AM 51.4528 -33.0853 82° East  Level Estimated
01:58AM 51.4718 -32.8648 82° East  Level Estimated
01:59AM 51.4904 -32.6441 82° East  Level Estimated
02:00AM 51.5086 -32.4232 82° East  Level Estimated
02:01AM 51.5264 -32.2021 83° East  Level Estimated
02:02AM 51.5438 -31.9809 83° East  Level Estimated
02:03AM 51.5607 -31.7595 83° East  Level Estimated
02:04AM 51.5772 -31.5380 83° East  Level Estimated
02:05AM 51.5933 -31.3162 83° East  Level Estimated
02:06AM 51.6090 -31.0944 83° East  Level Estimated
02:07AM 51.6243 -30.8723 84° East  Level Estimated
02:08AM 51.6391 -30.6502 84° East  Level Estimated
02:09AM 51.6536 -30.4278 84° East  Level Estimated
02:10AM 51.6676 -30.2054 84° East  Level Estimated
02:11AM 51.6812 -29.9828 84° East  Level Estimated
02:12AM 51.6943 -29.7600 84° East  Level Estimated
02:13AM 51.7071 -29.5372 85° East  Level Estimated
02:14AM 51.7194 -29.3142 85° East  Level Estimated
02:15AM 51.7313 -29.0911 85° East  Level Estimated
02:16AM 51.7428 -28.8679 85° East  Level Estimated
02:17AM 51.7539 -28.6446 85° East  Level Estimated
02:18AM 51.7645 -28.4212 86° East  Level Estimated
02:19AM 51.7747 -28.1976 86° East  Level Estimated
02:20AM 51.7845 -27.9740 86° East  Level Estimated
02:21AM 51.7939 -27.7502 86° East  Level Estimated
02:22AM 51.8028 -27.5264 86° East  Level Estimated
02:23AM 51.8113 -27.3025 86° East  Level Estimated
02:24AM 51.8194 -27.0785 87° East  Level Estimated
02:25AM 51.8271 -26.8545 87° East  Level Estimated
02:26AM 51.8343 -26.6303 87° East  Level Estimated
02:27AM 51.8411 -26.4061 87° East  Level Estimated
02:28AM 51.8475 -26.1818 87° East  Level Estimated
02:29AM 51.8535 -25.9575 87° East  Level Estimated
02:30AM 51.8590 -25.7331 88° East  Level Estimated
02:31AM 51.8641 -25.5086 88° East  Level Estimated
02:32AM 51.8688 -25.2841 88° East  Level Estimated
02:33AM 51.8731 -25.0596 88° East  Level Estimated
02:34AM 51.8769 -24.8350 88° East  Level Estimated
02:35AM 51.8803 -24.6104 89° East  Level Estimated
02:36AM 51.8833 -24.3857 89° East  Level Estimated
02:37AM 51.8858 -24.1611 89° East  Level Estimated
02:38AM 51.8879 -23.9364 89° East  Level Estimated
02:39AM 51.8896 -23.7117 89° East  Level Estimated
02:40AM 51.8909 -23.4869 89° East  Level Estimated
02:41AM 51.8917 -23.2622 90° East  Level Estimated
02:42AM 51.8921 -23.0374 90° East  Level Estimated
02:43AM 51.8921 -22.8127 90° East  Level Estimated
02:44AM 51.8916 -22.5879 90° East  Level Estimated
02:45AM 51.8907 -22.3632 90° East  Level Estimated
02:46AM 51.8895 -22.1498 90° East  Level Estimated
02:47AM 51.8879 -21.9364 91° East  Level Estimated
02:48AM 51.8859 -21.7231 91° East  Level Estimated
02:49AM 51.8835 -21.5097 91° East  Level Estimated
02:50AM 51.8807 -21.2964 91° East  Level Estimated
02:51AM 51.8775 -21.0831 91° East  Level Estimated
02:52AM 51.8740 -20.8699 91° East  Level Estimated
02:53AM 51.8700 -20.6567 92° East  Level Estimated
02:54AM 51.8657 -20.4435 92° East  Level Estimated
02:55AM 51.8610 -20.2304 92° East  Level Estimated
02:56AM 51.8559 -20.0173 92° East  Level Estimated
02:57AM 51.8505 -19.8043 92° East  Level Estimated
02:58AM 51.8446 -19.5913 92° East  Level Estimated
02:59AM 51.8384 -19.3784 93° East  Level Estimated
03:00AM 51.8317 -19.1655 93° East  Level Estimated
03:01AM 51.8247 -18.9527 93° East  Level Estimated
03:02AM 51.8173 -18.7400 93° East  Level Estimated
03:03AM 51.8095 -18.5273 93° East  Level Estimated
03:04AM 51.8014 -18.3147 93° East  Level Estimated
03:05AM 51.7928 -18.1022 94° East  Level Estimated
03:06AM 51.7839 -17.8898 94° East  Level Estimated
03:07AM 51.7746 -17.6775 94° East  Level Estimated
03:08AM 51.7649 -17.4653 94° East  Level Estimated
03:09AM 51.7548 -17.2531 94° East  Level Estimated
03:10AM 51.7444 -17.0410 94° East  Level Estimated
03:11AM 51.7335 -16.8291 95° East  Level Estimated
03:12AM 51.7223 -16.6172 95° East  Level Estimated
03:13AM 51.7107 -16.4055 95° East  Level Estimated
03:14AM 51.6987 -16.1939 95° East  Level Estimated
03:15AM 51.6864 -15.9823 95° East  Level Estimated
03:16AM 51.6736 -15.7709 95° East  Level Estimated
03:17AM 51.6605 -15.5597 96° East  Level Estimated
03:18AM 51.6470 -15.3485 96° East  Level Estimated
03:19AM 51.6331 -15.1375 96° East  Level Estimated
03:20AM 51.6189 -14.9266 96° East  Level Estimated
03:21AM 51.6042 -14.7158 96° East  Level Estimated
03:22AM 51.5892 -14.5052 96° East  Level Estimated
03:23AM 51.5738 -14.2947 97° East  Level Estimated
03:24AM 51.5581 -14.0843 97° East  Level Estimated
03:25AM 51.5419 -13.8741 97° East  Level Estimated
03:26AM 51.5254 -13.6641 97° East  Level Estimated
03:27AM 51.5085 -13.4542 97° East  Level Estimated
03:28AM 51.4913 -13.2445 97° East  Level Estimated
03:29AM 51.4736 -13.0349 98° East  Level Estimated
03:30AM 51.4556 -12.8255 98° East  Level Estimated
03:31AM 51.4372 -12.6163 98° East  Level Estimated
03:32AM 51.4185 -12.4072 98° East  Level Estimated
03:33AM 51.3993 -12.1983 98° East  Level Estimated
03:34AM 51.3798 -11.9896 98° East  Level Estimated
03:35AM 51.3600 -11.7810 99° East  Level Estimated
03:36AM 51.3397 -11.5727 99° East  Level Estimated
03:37AM 51.3191 -11.3645 99° East  Level Estimated
03:38AM 51.2981 -11.1565 99° East  Level Estimated
03:39AM 51.2768 -10.9487 99° East  Level Estimated
03:40AM 51.2551 -10.7411 99° East  Level Estimated
03:40AM 50.4680 -9.6570 100° East 516 594 38,000  Level FlightAware
03:41AM 51.2330 -10.5337 100° East  Level Estimated
03:42AM 51.2106 -10.3265 100° East  Level Estimated
03:42AM 50.4240 -9.3080 101° East 518 596 38,000  Level FlightAware
03:43AM 50.3960 -9.0940 102° East 518 596 38,000 -1,140 Level FlightAware
03:43AM 50.3810 -8.9891 102° East 472 543 36,500  Descending FlightAware UK
03:44AM 50.3770 -8.9510 102° East 522 601 38,000 -180 Climbing FlightAware
03:44AM 50.3636 -8.8561 102° East 472 543 36,400 -2,580 Descending FlightAware UK
03:44AM 50.3549 -8.7894 102° East 474 545 36,500 4,140 Climbing FlightAware UK
03:44AM 50.3550 -8.7850 102° East 524 603 38,000 -300 Climbing FlightAware
03:45AM 50.3431 -8.7005 102° East 476 548 36,400  Descending FlightAware UK
03:45AM 50.3380 -8.6590 102° East 525 604 38,000  Climbing FlightAware
03:45AM 50.3340 -8.6339 102° East 476 548 36,400 -4,800 Descending FlightAware UK
03:45AM 50.3249 -8.5672 102° East 476 548 36,400  Level FlightAware UK
03:46AM 50.3158 -8.5004 102° East 474 545 36,400  Level FlightAware UK
03:46AM 50.3066 -8.4337 102° East 474 545 36,400 3,540 Level FlightAware UK
03:46AM 50.3050 -8.4230 102° East 526 605 38,000  Climbing FlightAware
03:46AM 50.2944 -8.3443 102° East 476 548 36,400 -2,940 Descending FlightAware UK
03:47AM 50.2853 -8.2774 102° East 476 548 36,400 4,800 Level FlightAware UK
03:47AM 50.2870 -8.2890 102° East 525 604 38,000  Climbing FlightAware
03:47AM 50.2761 -8.2106 102° East 476 548 36,400 -2,880 Descending FlightAware UK
03:47AM 50.2667 -8.1439 102° East 476 548 36,400  Level FlightAware UK
03:47AM 50.2572 -8.0764 102° East 476 548 36,400  Level FlightAware UK
03:48AM 50.2478 -8.0097 102° East 476 548 36,400 4,140 Level FlightAware UK
03:48AM 50.2470 -8.0010 102° East 526 605 38,000 240 Climbing FlightAware
03:48AM 50.2352 -7.9209 102° East 478 550 36,500 -2,460 Descending FlightAware UK
03:48AM 50.2257 -7.8544 103° East 478 550 36,500 4,260 Level FlightAware UK
03:48AM 50.2270 -7.8590 103° East 524 603 38,000 -360 Climbing FlightAware
03:49AM 50.2161 -7.7881 103° East 476 548 36,400 -2,940 Descending FlightAware UK
03:49AM 50.2067 -7.7217 102° East 478 550 36,400 3,180 Level FlightAware UK
03:49AM 50.2030 -7.6960 102° East 522 601 38,000  Climbing FlightAware
03:50AM 50.1907 -7.6117 102° East 474 545 36,400 -2,700 Descending FlightAware UK
03:50AM 50.1811 -7.5458 103° East 474 545 36,400 4,320 Level FlightAware UK
03:50AM 50.1810 -7.5430 103° East 521 600 38,000  Climbing FlightAware
03:50AM 50.1683 -7.4582 103° East 474 545 36,400 -2,580 Descending FlightAware UK
03:51AM 50.1587 -7.3924 103° East 476 548 36,400  Level FlightAware UK
03:51AM 50.1490 -7.3269 103° East 476 548 36,400  Level FlightAware UK
03:51AM 50.1393 -7.2613 103° East 474 545 36,400 120 Level FlightAware UK
03:51AM 50.1298 -7.1957 103° East 474 545 36,500 120 Climbing FlightAware UK
03:52AM 50.1201 -7.1301 103° East 474 545 36,500 -180 Level FlightAware UK
03:52AM 50.1103 -7.0647 103° East 474 545 36,400 -180 Descending FlightAware UK
03:52AM 50.1004 -6.9993 103° East 476 548 36,400 3,540 Level FlightAware UK
03:52AM 50.1000 -6.9980 103° East 520 598 38,000  Climbing FlightAware
03:53AM 50.0870 -6.9113 103° East 476 548 36,400 -2,760 Descending FlightAware UK
03:53AM 50.0770 -6.8459 103° East 474 545 36,500 3,840 Climbing FlightAware UK
03:53AM 50.0760 -6.8360 103° East 520 598 38,000  Climbing FlightAware
03:53AM 50.0637 -6.7588 103° East 474 545 36,500 -2,580 Descending FlightAware UK
03:54AM 50.0539 -6.6934 103° East 474 545 36,500 3,180 Level FlightAware UK
03:54AM 50.0510 -6.6730 103° East 520 598 38,000  Climbing FlightAware
03:54AM 50.0373 -6.5849 103° East 472 543 36,500 -2,400 Descending FlightAware UK
03:55AM 50.0271 -6.5200 104° East 1 1 36,500 4,500 Level FlightAware UK
03:55AM 50.0290 -6.5330 104° East 519 597 38,000  Climbing FlightAware
03:55AM 50.0170 -6.4550 104° East 1 1 36,500 -2,700 Descending FlightAware UK
03:55AM 50.0070 -6.3899 103° East 1 1 36,500 3,060 Level FlightAware UK
03:55AM 50.0020 -6.3620 103° East 518 596 38,000  Climbing FlightAware
03:56AM 49.9902 -6.2815 103° East 472 543 36,500 -2,460 Descending FlightAware UK
03:56AM 49.9799 -6.2166 104° East 474 545 36,500 4,260 Level FlightAware UK
03:56AM 49.9800 -6.2220 104° East 519 597 38,000  Climbing FlightAware
03:56AM 49.9698 -6.1516 104° East 474 545 36,500 -2,760 Descending FlightAware UK
03:57AM 49.9595 -6.0867 104° East 474 545 36,500 3,600 Level FlightAware UK
03:57AM 49.9570 -6.0740 104° East 518 596 38,000  Climbing FlightAware
03:57AM 49.9456 -6.0003 104° East 472 543 36,500 -2,580 Descending FlightAware UK
03:57AM 49.9350 -5.9355 104° East 474 545 36,500 3,180 Level FlightAware UK
03:57AM 49.9340 -5.9280 104° East 518 596 38,000  Climbing FlightAware
03:58AM 49.9175 -5.8269 104° East 474 545 36,500 -2,400 Descending FlightAware UK
03:58AM 49.9069 -5.7622 104° East 474 545 36,500 4,500 Level FlightAware UK
03:58AM 49.9100 -5.7810 104° East 518 596 38,000  Climbing FlightAware
03:58AM 49.8964 -5.6975 104° East 476 548 36,500 -2,700 Descending FlightAware UK
03:59AM 49.8861 -5.6328 104° East 474 545 36,500 3,060 Level FlightAware UK
03:59AM 49.8820 -5.6090 104° East 518 596 38,000  Climbing FlightAware
03:59AM 49.8683 -5.5252 104° East 472 543 36,500 -2,460 Descending FlightAware UK
03:59AM 49.8575 -5.4606 105° East 472 543 36,500 4,260 Level FlightAware UK
03:59AM 49.8580 -5.4650 105° East 519 597 38,000  Climbing FlightAware
04:00AM 49.8467 -5.3960 105° East 474 545 36,500 -2,760 Descending FlightAware UK
04:00AM 49.8359 -5.3314 105° East 476 548 36,500 3,600 Level FlightAware UK
04:00AM 49.8330 -5.3170 105° East 519 597 38,000  Climbing FlightAware
04:00AM 49.8215 -5.2452 105° East 474 545 36,500 -2,580 Descending FlightAware UK
04:01AM 49.8105 -5.1800 105° East 474 545 36,500 2,700 Level FlightAware UK
04:01AM 49.8030 -5.1380 105° East 519 597 38,000  Climbing FlightAware
04:01AM 49.7924 -5.0724 105° East 476 548 36,500 -2,760 Descending FlightAware UK
04:02AM 49.7815 -5.0079 105° East 476 548 36,500 3,600 Level FlightAware UK
04:02AM 49.7780 -4.9920 105° East 518 596 38,000  Climbing FlightAware
04:02AM 49.7668 -4.9220 105° East 474 545 36,500 -2,580 Descending FlightAware UK
04:02AM 49.7558 -4.8577 105° East 474 545 36,500 3,900 Level FlightAware UK
04:02AM 49.7540 -4.8500 105° East 518 596 38,000  Climbing FlightAware
04:03AM 49.7411 -4.7720 105° East 476 548 36,500  Descending FlightAware UK
04:03AM 49.7290 -4.7060 105° East 516 594 38,000  Climbing FlightAware
04:03AM 49.7194 -4.6436 105° East 476 548 36,500 -2,760 Descending FlightAware UK
04:04AM 49.7100 -4.5788 103° East 476 548 36,500 960 Level FlightAware UK
04:04AM 49.6980 -4.4550 103° East 510 587 37,500 -1,320 Climbing FlightAware
04:05AM 49.6865 -4.3406 103° East 460 529 35,100 -1,980 Descending FlightAware UK
04:05AM 49.6820 -4.2960 103° East 501 577 36,200 -1,020 Climbing FlightAware
04:05AM 49.6737 -4.2142 103° East 456 525 34,500 -300 Descending FlightAware UK
04:06AM 49.6650 -4.1360 103° East 496 571 36,000  Climbing FlightAware
04:06AM 49.6565 -4.0465 103° East 456 525 34,500  Descending FlightAware UK
04:06AM 49.6530 -4.0100 103° East 504 580 36,000  Climbing FlightAware
04:07AM 49.6462 -3.9174 103° East 470 541 34,500  Descending FlightAware UK
04:07AM 49.6420 -3.8610 103° East 520 598 36,000  Climbing FlightAware
04:07AM 49.6356 -3.7622 103° East 478 550 34,500 -2,280 Descending FlightAware UK
04:08AM 49.6313 -3.6952 96° East 482 555 34,500 4,980 Level FlightAware UK
04:08AM 49.6320 -3.7130 96° East 526 605 36,000  Climbing FlightAware
04:09AM 49.6192 -3.4939 96° East 482 555 34,500  Descending FlightAware UK
04:09AM 49.6160 -3.4450 96° East 526 605 36,000  Climbing FlightAware
04:09AM 49.6108 -3.3590 96° East 480 552 34,500 -2,400 Descending FlightAware UK
04:09AM 49.6065 -3.2919 96° East 482 555 34,500 3,600 Level FlightAware UK
04:10AM 49.6060 -3.2870 96° East 528 608 36,000  Climbing FlightAware
04:10AM 49.6005 -3.2017 96° East 482 555 34,500 -2,580 Descending FlightAware UK
04:10AM 49.5961 -3.1345 96° East 482 555 34,500 3,900 Level FlightAware UK
04:10AM 49.5960 -3.1310 96° East 528 608 36,000  Climbing FlightAware
04:11AM 49.5903 -3.0447 96° East 480 552 34,500 -2,460 Descending FlightAware UK
04:11AM 49.5857 -2.9776 96° East 482 555 34,500 3,420 Level FlightAware UK
04:11AM 49.5840 -2.9600 96° East 529 609 36,000  Climbing FlightAware
04:11AM 49.5794 -2.8879 96° East 482 555 34,500  Descending FlightAware UK
04:12AM 49.5740 -2.8110 96° East 529 609 36,000  Climbing FlightAware
04:12AM 49.5683 -2.7301 96° East 482 555 34,500 -2,520 Descending FlightAware UK
04:12AM 49.5634 -2.6630 96° East 482 555 34,500 4,080 Level FlightAware UK
04:12AM 49.5640 -2.6710 96° East 528 608 36,000  Climbing FlightAware
04:13AM 49.5570 -2.5736 96° East 482 555 34,500 -2,400 Descending FlightAware UK
04:13AM 49.5521 -2.5059 96° East 482 555 34,500 3,600 Level FlightAware UK
04:13AM 49.5510 -2.4920 96° East 527 606 36,000  Climbing FlightAware
04:13AM 49.5455 -2.4169 96° East 482 555 34,500 -2,520 Descending FlightAware UK
04:14AM 49.5405 -2.3493 97° East 482 555 34,500 3,900 Level FlightAware UK
04:14AM 49.5400 -2.3510 97° East 526 605 36,000 3,420 Climbing FlightAware
04:14AM 49.5330 -2.2515 96° East 526 605 36,000 -2,100 Level FlightAware ADS-B
04:14AM 49.5273 -2.1723 96° East 482 555 34,500  Descending FlightAware UK
04:15AM 49.5234 -2.1264 96° East 526 605 36,000  Climbing FlightAware ADS-B
04:15AM 49.5171 -2.0381 96° East 482 555 34,500  Descending FlightAware UK
04:15AM 49.5145 -2.0105 96° East 526 605 36,000  Climbing FlightAware ADS-B
04:16AM 49.5083 -1.9263 96° East 482 555 34,500  Descending FlightAware UK
04:16AM 49.5051 -1.8896 96° East 525 604 36,000  Climbing FlightAware ADS-B
04:16AM 49.4995 -1.8154 96° East 482 555 34,500  Descending FlightAware UK
04:16AM 49.4955 -1.7682 96° East 524 603 36,000  Climbing FlightAware ADS-B
04:17AM 49.4904 -1.7035 96° East 482 555 34,500  Descending FlightAware UK
04:17AM 49.4860 -1.6488 96° East 524 603 36,000 1,920 Climbing FlightAware ADS-B
04:17AM 49.4768 -1.5362 97° East 523 602 36,000  Level FlightAware ADS-B
04:18AM 49.4677 -1.4250 97° East 523 602 36,000  Level FlightAware ADS-B
04:18AM 49.4580 -1.3084 97° East 524 603 36,000 -1,800 Level FlightAware ADS-B
04:19AM 49.4524 -1.2397 97° East 482 555 34,500  Descending FlightAware UK
04:19AM 49.4468 -1.1745 97° East 523 602 36,000 1,680 Climbing FlightAware ADS-B
04:20AM 49.4357 -1.0457 98° East 523 602 36,000  Level FlightAware ADS-B
04:20AM 49.4270 -0.9420 97° East 524 603 36,000  Level FlightAware
04:20AM 49.4249 -0.9203 98° East 525 604 36,000 -3,300 Level FlightAware ADS-B
04:21AM 49.4162 -0.8191 98° East 484 557 34,300 -360 Descending FlightAware UK
04:21AM 49.4140 -0.7970 98° East 524 603 35,800 -1,620 Climbing FlightAware
04:21AM 49.4064 -0.7082 98° East 484 557 33,500 -2,580 Descending FlightAware UK
04:21AM 49.4000 -0.6330 98° East 519 597 33,900 -1,740 Climbing FlightAware
04:22AM 49.3870 -0.4980 98° East 520 598 31,700 -3,120 Descending FlightAware
04:23AM 49.3800 -0.3190 93° East 528 608 29,500 -2,220 Descending FlightAware
04:24AM 49.3770 -0.1720 92° East 512 589 28,600 -2,340 Descending FlightAware
04:24AM 49.3725 -0.0279 92° East 474 545 26,500 -900 Descending FlightAware UK
04:24AM 49.3720 -0.0330 92° East 501 577 28,000 -360 Climbing FlightAware
04:24AM 49.3702 0.0356 92° East 472 543 26,400 -2,940 Descending FlightAware UK
04:25AM 49.3676 0.1001 94° East 474 545 26,400 3,180 Level FlightAware UK
04:25AM 49.3660 0.1250 94° East 504 580 28,000 -240 Climbing FlightAware
04:25AM 49.3631 0.2071 94° East 474 545 26,300 -4,080 Descending FlightAware UK
04:26AM 49.3605 0.2707 94° East 468 539 25,500 2,280 Descending FlightAware UK
04:26AM 49.3600 0.2680 94° East 498 573 27,100 -2,340 Climbing FlightAware
04:26AM 49.3577 0.3341 94° East 464 534 24,800 -5,280 Descending FlightAware UK
04:26AM 49.3549 0.3969 94° East 464 534 24,200 600 Descending FlightAware UK
04:27AM 49.3530 0.4480 94° East 494 568 25,200 -2,160 Climbing FlightAware
04:27AM 49.3593 0.5367 94° East 452 520 22,700 -5,100 Descending FlightAware UK
04:27AM 49.3690 0.5947 76° East 438 504 22,000 1,680 Descending FlightAware UK
04:27AM 49.3690 0.5990 76° East 470 541 23,400 120 Climbing FlightAware
04:28AM 49.3900 0.7230 75° East 464 534 22,100 -3,720 Descending FlightAware
04:28AM 49.4070 0.8259 75° East 428 493 19,400 -2,160 Descending FlightAware UK
04:29AM 49.4150 0.8750 75° East 456 525 20,500 -2,160 Climbing FlightAware
04:29AM 49.4314 0.9745 75° East 418 481 17,700 -2,280 Descending FlightAware UK
04:29AM 49.4330 0.9840 75° East 449 517 19,200 -2,280 Climbing FlightAware
04:30AM 49.4438 1.0489 75° East 416 479 16,800 -4,740 Descending FlightAware UK
04:30AM 49.4558 1.1210 76° East 410 472 16,000 1,680 Descending FlightAware UK
04:30AM 49.4560 1.1190 76° East 437 503 17,600 -2,220 Climbing FlightAware
04:30AM 49.4716 1.2108 76° East 406 467 14,900 -2,040 Descending FlightAware UK
04:31AM 49.4770 1.2460 76° East 424 488 16,100 1,200 Climbing FlightAware
04:31AM 49.4848 1.2946 76° East 421 484 15,500 -4,980 Descending FlightAware ADS-B
04:31AM 49.4873 1.3665 76° East 376 433 13,200 -2,940 Descending FlightAware UK
04:32AM 49.4810 1.4080 76° East 365 420 13,300 -4,200 Climbing FlightAware
04:32AM 49.4649 1.4528 76° East 346 398 10,700 -4,980 Descending FlightAware UK
04:32AM 49.4449 1.4829 136° Southeast 342 394 10,500 3,240 Descending FlightAware UK
04:32AM 49.4450 1.4840 136° Southeast 333 383 12,000 -1,440 Climbing FlightAware
04:33AM 49.4056 1.5138 136° Southeast 332 382 9,800 -1,380 Descending FlightAware UK
04:33AM 49.3910 1.5220 136° Southeast 308 354 11,100 -1,680 Climbing FlightAware
04:33AM 49.3559 1.5410 136° Southeast 326 375 8,800 -4,320 Descending FlightAware UK
04:34AM 49.3312 1.5538 161° South 322 371 8,400 2,880 Descending FlightAware UK
04:34AM 49.3270 1.5570 161° South 309 356 10,000 4,320 Climbing FlightAware
04:34AM 49.3100 1.5770 143° Southeast 321 369 10,000  Level FlightAware
04:34AM 49.2950 1.6000 135° Southeast 327 376 10,000  Level FlightAware
04:34AM 49.2849 1.6156 135° Southeast 326 375 10,000 -3,120 Level FlightAware ADS-B
04:35AM 49.2585 1.6559 135° Southeast 326 375 8,500  Descending FlightAware UK
04:35AM 49.2510 1.6660 135° Southeast 318 366 10,000 4,260 Climbing FlightAware
04:35AM 49.2363 1.6884 135° Southeast 325 374 10,000  Level FlightAware ADS-B
04:35AM 49.2203 1.7122 136° Southeast 314 361 10,000  Level FlightAware ADS-B
04:36AM 49.1895 1.7588 135° Southeast 287 330 10,000  Level FlightAware ADS-B
04:36AM 49.1744 1.7814 136° Southeast 269 310 10,000  Level FlightAware ADS-B
04:36AM 49.1674 1.7894 143° Southeast 265 305 10,000  Level FlightAware ADS-B
04:37AM 49.1535 1.8006 152° Southeast 260 299 10,000  Level FlightAware ADS-B
04:37AM 49.1369 1.8122 155° Southeast 259 298 10,000  Level FlightAware ADS-B
04:37AM 49.1114 1.8299 155° Southeast 260 299 10,000  Level FlightAware ADS-B
04:38AM 49.0889 1.8456 155° Southeast 261 300 10,000 -180 Level FlightAware ADS-B
04:38AM 49.0707 1.8584 155° Southeast 261 300 9,900 -600 Descending FlightAware ADS-B
04:38AM 49.0546 1.8698 155° Southeast 251 289 9,700 -780 Descending FlightAware ADS-B
04:38AM 49.0373 1.8821 155° Southeast 245 282 9,500 -780 Descending FlightAware ADS-B
04:39AM 49.0216 1.8932 155° Southeast 239 275 9,300 -840 Descending FlightAware ADS-B
04:39AM 49.0149 1.8981 155° Southeast 238 274 9,200 -1,140 Descending FlightAware ADS-B
04:39AM 49.0110 1.9011 153° Southeast 238 274 9,100 -900 Descending FlightAware ADS-B
04:39AM 49.0076 1.9045 147° Southeast 239 275 9,100 -900 Level FlightAware ADS-B
04:39AM 49.0042 1.9088 140° Southeast 241 277 9,000 -1,500 Descending FlightAware ADS-B
04:39AM 49.0019 1.9125 133° Southeast 242 278 8,900 -780 Descending FlightAware ADS-B
04:39AM 48.9989 1.9187 127° Southeast 243 280 8,900 -900 Level FlightAware ADS-B
04:39AM 48.9969 1.9238 121° Southeast 243 280 8,800 -1,200 Descending FlightAware ADS-B
04:39AM 48.9933 1.9344 117° Southeast 244 281 8,700 -1,080 Descending FlightAware ADS-B
04:39AM 48.9859 1.9581 115° Southeast 246 283 8,400 -1,140 Descending FlightAware ADS-B
04:40AM 48.9781 1.9827 116° Southeast 245 282 8,100 -960 Descending FlightAware ADS-B
04:40AM 48.9698 2.0085 116° Southeast 243 280 7,900 -1,080 Descending FlightAware ADS-B
04:40AM 48.9639 2.0265 116° Southeast 240 276 7,600 -1,620 Descending FlightAware ADS-B
04:40AM 48.9626 2.0315 112° Southeast 240 276 7,500 -1,500 Descending FlightAware ADS-B
04:40AM 48.9614 2.0387 104° East 241 277 7,400 -1,380 Descending FlightAware ADS-B
04:41AM 48.9628 2.0607 84° East 239 275 7,100 -1,500 Descending FlightAware ADS-B
04:41AM 48.9646 2.0726 77° East 238 274 6,900 -1,680 Descending FlightAware ADS-B
04:41AM 48.9653 2.0792 81° East 238 274 6,800 -1,800 Descending FlightAware ADS-B
04:41AM 48.9661 2.0892 83° East 238 274 6,600 -1,920 Descending FlightAware ADS-B
04:41AM 48.9674 2.1100 85° East 236 272 6,200 -2,100 Descending FlightAware ADS-B
04:41AM 48.9690 2.1358 85° East 235 270 5,600 -1,980 Descending FlightAware ADS-B
04:42AM 48.9706 2.1621 85° East 241 277 5,200 -1,380 Descending FlightAware ADS-B
04:42AM 48.9721 2.1878 85° East 242 278 4,900 -1,140 Descending FlightAware ADS-B
04:42AM 48.9736 2.2153 85° East 241 277 4,600 -1,200 Descending FlightAware ADS-B
04:42AM 48.9750 2.2396 85° East 240 276 4,300 -1,320 Descending FlightAware ADS-B
04:43AM 48.9767 2.2693 85° East 230 265 3,900 -1,440 Descending FlightAware ADS-B
04:43AM 48.9781 2.2948 85° East 228 262 3,500 -1,320 Descending FlightAware ADS-B
04:43AM 48.9795 2.3195 85° East 220 253 3,200 -1,200 Descending FlightAware ADS-B
04:43AM 48.9808 2.3429 85° East 216 249 2,900 -1,200 Descending FlightAware ADS-B
04:44AM 48.9820 2.3651 85° East 202 232 2,600 -1,020 Descending FlightAware ADS-B
04:44AM 48.9831 2.3858 85° East 198 228 2,400 -1,140 Descending FlightAware ADS-B
04:44AM 48.9841 2.4032 85° East 197 227 2,100 -1,320 Descending FlightAware ADS-B
04:44AM 48.9852 2.4242 85° East 194 223 1,800 -960 Descending FlightAware ADS-B
04:45AM 48.9864 2.4455 85° East 182 209 1,600 -900 Descending FlightAware ADS-B
04:45AM 48.9872 2.4590 85° East 175 201 1,400 -960 Descending FlightAware ADS-B
04:45AM 48.9882 2.4772 85° East 166 191 1,200 -840 Descending FlightAware ADS-B
04:45AM 48.9886 2.4860 86° East 161 185 1,100 -780 Descending FlightAware ADS-B
04:45AM 48.9896 2.5035 85° East 151 174 900 -900 Descending FlightAware ADS-B
04:46AM 48.9902 2.5146 85° East 138 159 700 -720 Descending FlightAware ADS-B
04:46AM 48.9905 2.5205 86° East 137 158 700 -660 Level FlightAware ADS-B
04:46AM 48.9911 2.5328 86° East 137 158 500 -900 Descending FlightAware ADS-B
04:46AM 48.9919 2.5461 85° East 137 158 300 -720 Descending FlightAware ADS-B
04:46AM 48.9925 2.5577 86° East 138 159 200 -540 Descending FlightAware ADS-B